Active alerts

Hennepin
  Details for Hennepin River Flood Warning  +1 additional alert


weather webcam more information weather webcam


Thunder radar more information blitzortung!


Rain radar more information rain snow radar


Visit our other weather sites:

Template documentation
and downloads

And another site


Nearby METAR Reports

   
EBBR - Brussels International Airport, Belgium
Distance from station: W 9 mi
Updated: Apr 22 2019 11:20 pm
Clear  
Clear  
   Wind: East 6.9 mph
Wind: East 6.9 mph
Temperature: 51.8°F
Dew Point: 37.4°F
Humidity: 58%
Barometer: 29.5 inHg
Visibility: More than 6 mi
Cloud details: Clear
EBBR 230420Z 09006KT CAVOK 11/03 Q0999 NOSIG
EBBE - Beauvechain (Bevekom), Belgium
Distance from station: SSE 10 mi
Updated: Apr 22 2019 11:25 pm
Mostly Cloudy  
Mostly Cloudy  
   Wind: ENE 5.8 mph
Wind: ENE 5.8 mph
Temperature: 50°F
Wind Chill: 48.2°F
Dew Point: 35.6°F
Humidity: 58%
Barometer: 29.5 inHg
Clouds: Mostly Cloudy
Visibility: More than 6 mi
Cloud details: Mostly Cloudy 23000 ft
EBBE 230425Z AUTO 06005KT 9999 BKN230/// 10/02 Q0999 BLU
EBDT - Schaffen, Belgium
Distance from station: ENE 18 mi
Updated: Apr 22 2019 11:33 pm
Mostly Cloudy  
Mostly Cloudy  
   Wind: ENE 5.8 mph
Wind: ENE 5.8 mph
Temperature: 53.6°F
Dew Point: 35.6°F
Humidity: 51%
Barometer: 29.53 inHg
Clouds: Mostly Cloudy
Visibility: More than 6 mi
Cloud details: Mostly Cloudy 25000 ft
EBDT 230433Z 07005KT 9999 BKN250 12/02 Q1000 BLU BLU
EBAW - Antwerp/Deurne, Belgium
Distance from station: NNW 23 mi
Updated: Apr 22 2019 11:20 pm
Clear  
Clear  
   Wind: East 8.1 mph
Wind: East 8.1 mph
Temperature: 51.8°F
Dew Point: 35.6°F
Humidity: 54%
Barometer: 29.53 inHg
Visibility: More than 6 mi
Cloud details: Clear
EBAW 230420Z 08007KT CAVOK 11/02 Q1000 NOSIG
EBCI - Charleroi/Gosselies, Belgium
Distance from station: SSW 32 mi
Updated: Apr 22 2019 11:20 pm
Clear  
Clear  
   Wind: ENE 8.1 mph
Wind: ENE 8.1 mph
Temperature: 50°F
Wind Chill: 46.4°F
Dew Point: 39.2°F
Humidity: 67%
Barometer: 29.5 inHg
Visibility: More than 6 mi
Cloud details: Clear
EBCI 230420Z 07007KT CAVOK 10/04 Q0999 NOSIG
EBLG - Bierset/Liege, Belgium
Distance from station: ESE 38 mi
Updated: Apr 22 2019 11:20 pm
Clear  
Clear  
   Wind: ENE 3.5 mph
Wind: ENE 3.5 mph
Temperature: 51.8°F
Dew Point: 35.6°F
Humidity: 54%
Barometer: 29.5 inHg
Visibility: More than 6 mi
Cloud details: Clear
EBLG 230420Z 07003KT 300V110 CAVOK 11/02 Q0999 NOSIG

Script developed by  Saratoga-weather.org Adapted for the template by  Weerstation Leuven

You find our weather info also at:

Weather Underground

Midwestern Weather Network

Citizen Weather Observer Program (CWOP)

HAMweather, WeatherForYou, PWS Weather

Equipment we use:

Weather-station
Davis VP2

Weather-program
Cumulus

Davis VP2

Cumulus